Time;durP1;ratioP1;P1;durP2;ratioP2;P2;SDS_P1;SDS_P2;PMS_P1;PMS_P2;Temp;Humidity;BMP_temperature;BMP_pressure;BME280_temperature;BME280_humidity;BME280_pressure;Samples;Min_cycle;Max_cycle;Signal;HPM_P1;HPM_P2
2022/01/24 00:00:51;;;;;;;;;;;22.60;54.60;;;;;;4996743;28;993;-37
2022/01/24 00:03:18;;;;;;;;;;;22.60;54.80;;;;;;4996448;28;974;-37
2022/01/24 00:05:45;;;;;;;;;;;22.60;54.80;;;;;;4996765;28;1965;-38
2022/01/24 00:08:11;;;;;;;;;;;22.60;55.00;;;;;;4997311;28;953;-38
2022/01/24 00:10:40;;;;;;;;;;;22.60;55.00;;;;;;4996180;28;1451;-37
2022/01/24 00:13:51;;;;;;;;;;;22.60;54.90;;;;;;4996959;28;1031;-38
2022/01/24 00:16:22;;;;;;;;;;;22.60;55.00;;;;;;4996940;28;1142;-37
2022/01/24 00:27:01;;;;;;;;;;;22.50;55.20;;;;;;4996499;28;919;-38
2022/01/24 00:29:29;;;;;;;;;;;22.50;55.40;;;;;;4996874;28;972;-38
2022/01/24 00:31:56;;;;;;;;;;;22.50;55.40;;;;;;4996486;28;1052;-37
2022/01/24 00:34:24;;;;;;;;;;;22.50;55.50;;;;;;4995564;28;1791;-37
2022/01/24 00:36:51;;;;;;;;;;;22.60;55.50;;;;;;4996272;28;1175;-38
2022/01/24 00:39:18;;;;;;;;;;;22.50;55.40;;;;;;4997140;28;989;-37
2022/01/24 00:41:52;;;;;;;;;;;22.50;55.40;;;;;;4996886;28;1028;-38
2022/01/24 00:44:41;;;;;;;;;;;22.60;55.40;;;;;;4996192;28;945;-37
2022/01/24 00:47:14;;;;;;;;;;;22.60;55.40;;;;;;5058655;28;1017;-38
2022/01/24 00:55:22;;;;;;;;;;;22.50;55.50;;;;;;5057864;28;719;-38
2022/01/24 00:57:48;;;;;;;;;;;22.50;55.60;;;;;;5058963;28;979;-37
2022/01/24 01:00:15;;;;;;;;;;;22.50;55.60;;;;;;5058670;28;992;-37
2022/01/24 01:02:43;;;;;;;;;;;22.50;55.70;;;;;;5058773;28;1538;-38
2022/01/24 01:05:25;;;;;;;;;;;22.50;55.60;;;;;;5058383;28;1910;-38
2022/01/24 01:07:56;;;;;;;;;;;22.50;55.60;;;;;;5058513;28;1206;-38
2022/01/24 01:18:37;;;;;;;;;;;22.30;55.90;;;;;;5058049;28;691;-38
2022/01/24 01:21:10;;;;;;;;;;;22.30;56.00;;;;;;5058649;28;945;-38
2022/01/24 01:23:41;;;;;;;;;;;22.30;55.90;;;;;;5058029;28;996;-38
2022/01/24 01:26:12;;;;;;;;;;;22.30;56.10;;;;;;5058123;28;1898;-38
2022/01/24 01:28:42;;;;;;;;;;;22.30;56.00;;;;;;5058145;28;968;-38
2022/01/24 01:31:17;;;;;;;;;;;22.30;56.10;;;;;;5058097;28;1036;-37
2022/01/24 01:33:56;;;;;;;;;;;22.30;56.10;;;;;;5057817;28;988;-38
2022/01/24 01:36:36;;;;;;;;;;;22.30;55.90;;;;;;5058305;28;1063;-38
2022/01/24 01:53:18;;;;;;;;;;;22.20;56.20;;;;;;5080227;28;1086;-38
2022/01/24 01:55:45;;;;;;;;;;;22.20;56.20;;;;;;5080239;28;952;-38
2022/01/24 01:58:13;;;;;;;;;;;22.20;56.20;;;;;;5034739;28;968;-38
2022/01/24 02:00:41;;;;;;;;;;;22.10;56.20;;;;;;4999492;28;957;-38
2022/01/24 02:03:08;;;;;;;;;;;22.20;56.30;;;;;;4998586;28;977;-38
2022/01/24 02:05:37;;;;;;;;;;;22.20;56.30;;;;;;4998264;28;1903;-38
2022/01/24 02:08:04;;;;;;;;;;;22.10;56.30;;;;;;4998437;28;1008;-38
2022/01/24 02:10:33;;;;;;;;;;;22.20;56.20;;;;;;4998325;28;881;-38
2022/01/24 02:13:00;;;;;;;;;;;22.20;56.20;;;;;;4998527;28;1103;-37
2022/01/24 02:15:37;;;;;;;;;;;22.20;56.30;;;;;;4998270;28;949;-38
2022/01/24 02:18:10;;;;;;;;;;;22.20;56.20;;;;;;4998462;28;942;-38
2022/01/24 02:21:06;;;;;;;;;;;22.10;56.30;;;;;;4998561;28;1896;-38
2022/01/24 02:23:40;;;;;;;;;;;22.10;56.20;;;;;;4999093;28;1119;-38
2022/01/24 02:26:10;;;;;;;;;;;22.10;57.40;;;;;;4998471;28;1911;-38
2022/01/24 02:28:48;;;;;;;;;;;22.10;56.30;;;;;;4998939;28;1025;-38
2022/01/24 02:31:37;;;;;;;;;;;22.10;56.30;;;;;;4998671;28;999;-38
2022/01/24 02:34:05;;;;;;;;;;;22.10;56.20;;;;;;4998712;28;1069;-38
2022/01/24 02:36:32;;;;;;;;;;;22.10;56.30;;;;;;4998290;28;1017;-38
2022/01/24 02:39:11;;;;;;;;;;;22.10;56.30;;;;;;4998105;28;922;-37
2022/01/24 02:49:51;;;;;;;;;;;22.00;56.20;;;;;;4998038;28;626;-38
2022/01/24 02:52:18;;;;;;;;;;;22.00;56.20;;;;;;4998055;28;1009;-38
2022/01/24 02:54:47;;;;;;;;;;;22.00;56.20;;;;;;4998435;28;952;-38
2022/01/24 02:57:14;;;;;;;;;;;22.10;56.20;;;;;;4997955;28;945;-38
2022/01/24 02:59:41;;;;;;;;;;;22.10;56.10;;;;;;4997532;28;944;-38
2022/01/24 03:02:08;;;;;;;;;;;22.00;56.20;;;;;;4998394;28;1032;-38
2022/01/24 03:04:34;;;;;;;;;;;22.10;56.10;;;;;;4998164;28;941;-37
2022/01/24 03:07:01;;;;;;;;;;;22.00;56.10;;;;;;4997963;28;1989;-38
2022/01/24 03:09:28;;;;;;;;;;;22.00;56.20;;;;;;4998274;28;956;-38
2022/01/24 03:12:04;;;;;;;;;;;22.00;56.30;;;;;;4998459;28;1008;-38
2022/01/24 03:14:32;;;;;;;;;;;22.00;56.20;;;;;;4998440;28;1072;-38
2022/01/24 03:16:58;;;;;;;;;;;22.00;56.20;;;;;;4998158;28;1023;-39
2022/01/24 03:19:25;;;;;;;;;;;22.00;56.20;;;;;;4997875;28;985;-39
2022/01/24 03:21:52;;;;;;;;;;;22.00;56.30;;;;;;4998345;28;1004;-38
2022/01/24 03:24:19;;;;;;;;;;;22.00;56.30;;;;;;4997848;28;1773;-39
2022/01/24 03:26:47;;;;;;;;;;;22.00;56.30;;;;;;4997615;28;1890;-38
2022/01/24 03:29:15;;;;;;;;;;;22.00;56.20;;;;;;4997862;28;949;-38
2022/01/24 03:31:42;;;;;;;;;;;22.00;56.20;;;;;;4997580;28;1796;-38
2022/01/24 03:34:10;;;;;;;;;;;22.00;56.20;;;;;;4997905;28;1055;-39
2022/01/24 03:36:36;;;;;;;;;;;22.00;56.00;;;;;;4997859;28;937;-38
2022/01/24 03:39:04;;;;;;;;;;;22.00;56.10;;;;;;4997285;28;988;-39
2022/01/24 03:41:31;;;;;;;;;;;22.00;56.20;;;;;;4997776;28;929;-37
2022/01/24 03:44:03;;;;;;;;;;;21.90;56.20;;;;;;4997011;28;988;-38
2022/01/24 03:46:46;;;;;;;;;;;22.00;56.20;;;;;;4997521;28;1910;-38
2022/01/24 03:49:45;;;;;;;;;;;21.90;56.30;;;;;;4997666;28;953;-38
2022/01/24 03:52:00;;;;;;;;;;;21.90;56.20;;;;;;4996876;28;1577;-38
2022/01/24 03:54:27;;;;;;;;;;;21.90;56.30;;;;;;4997529;28;984;-39
2022/01/24 03:56:53;;;;;;;;;;;22.00;56.30;;;;;;4997084;28;1846;-38
2022/01/24 03:59:20;;;;;;;;;;;21.90;56.20;;;;;;4996987;28;980;-39
2022/01/24 04:01:48;;;;;;;;;;;21.90;56.20;;;;;;4997137;28;1025;-38
2022/01/24 04:04:15;;;;;;;;;;;21.90;56.30;;;;;;4997559;28;937;-38
2022/01/24 04:06:42;;;;;;;;;;;21.90;56.20;;;;;;4996869;28;1971;-38
2022/01/24 04:09:08;;;;;;;;;;;21.90;56.30;;;;;;4996949;28;1064;-36
2022/01/24 04:11:38;;;;;;;;;;;21.90;56.40;;;;;;4995924;28;1036;-38
2022/01/24 04:14:23;;;;;;;;;;;21.80;56.30;;;;;;4997357;28;977;-37
2022/01/24 04:17:04;;;;;;;;;;;21.80;56.30;;;;;;4997525;28;984;-37
2022/01/24 04:21:18;;;;;;;;;;;21.90;56.40;;;;;;4997360;28;945;-39
2022/01/24 04:22:19;;;;;;;;;;;21.90;56.40;;;;;;4997538;28;881;-35
2022/01/24 04:24:47;;;;;;;;;;;21.80;56.40;;;;;;4996620;28;992;-37
2022/01/24 04:27:14;;;;;;;;;;;21.80;56.40;;;;;;4996976;28;1927;-37
2022/01/24 04:29:41;;;;;;;;;;;21.80;56.40;;;;;;4996964;28;953;-36
2022/01/24 04:32:10;;;;;;;;;;;21.80;56.40;;;;;;4997112;28;1020;-37
2022/01/24 04:34:37;;;;;;;;;;;21.80;56.40;;;;;;4996864;28;1028;-39
2022/01/24 04:37:03;;;;;;;;;;;21.80;56.40;;;;;;4996614;28;929;-36
2022/01/24 04:39:30;;;;;;;;;;;21.80;56.30;;;;;;4995793;28;962;-36
2022/01/24 04:41:59;;;;;;;;;;;21.80;56.40;;;;;;4995786;28;994;-37
2022/01/24 04:44:46;;;;;;;;;;;21.90;56.20;;;;;;4996103;28;1027;-37
2022/01/24 04:47:22;;;;;;;;;;;22.00;55.90;;;;;;4996169;28;1983;-39
2022/01/24 04:52:50;;;;;;;;;;;22.20;55.70;;;;;;5043909;28;1181;-39
2022/01/24 04:55:17;;;;;;;;;;;22.30;55.80;;;;;;4996132;28;1093;-39
2022/01/24 04:57:46;;;;;;;;;;;22.30;55.80;;;;;;4995613;28;917;-38
2022/01/24 05:00:13;;;;;;;;;;;22.40;55.70;;;;;;4996287;28;976;-38
2022/01/24 05:02:41;;;;;;;;;;;22.40;55.80;;;;;;4996041;28;1008;-38
2022/01/24 05:05:13;;;;;;;;;;;22.40;55.90;;;;;;4995854;28;885;-38
2022/01/24 05:07:39;;;;;;;;;;;22.50;55.50;;;;;;4996004;28;1903;-38
2022/01/24 05:10:14;;;;;;;;;;;22.50;55.60;;;;;;4996046;28;934;-39
2022/01/24 05:21:33;;;;;;;;;;;22.60;55.40;;;;;;5004936;28;1069;-39
2022/01/24 05:23:59;;;;;;;;;;;22.50;55.50;;;;;;4995942;28;1004;-39
2022/01/24 05:26:26;;;;;;;;;;;22.50;55.40;;;;;;4995676;28;1979;-38
2022/01/24 05:28:53;;;;;;;;;;;22.60;55.40;;;;;;4995322;28;960;-37
2022/01/24 05:31:21;;;;;;;;;;;22.60;55.10;;;;;;4995596;28;965;-38
2022/01/24 05:33:49;;;;;;;;;;;22.60;55.30;;;;;;4995792;28;960;-38
2022/01/24 05:36:16;;;;;;;;;;;22.60;55.40;;;;;;4995529;28;1012;-38
2022/01/24 05:38:42;;;;;;;;;;;22.60;55.30;;;;;;4994782;28;1005;-39
2022/01/24 05:41:09;;;;;;;;;;;22.60;55.10;;;;;;4995145;28;1065;-38
2022/01/24 05:43:36;;;;;;;;;;;22.70;55.20;;;;;;4994124;28;1079;-39
2022/01/24 05:46:03;;;;;;;;;;;22.60;55.30;;;;;;4994526;28;1910;-39
2022/01/24 05:48:29;;;;;;;;;;;22.60;55.20;;;;;;4994336;28;953;-38
2022/01/24 05:50:58;;;;;;;;;;;22.60;55.00;;;;;;4994754;28;904;-38
2022/01/24 05:53:24;;;;;;;;;;;22.50;55.30;;;;;;4994470;28;1051;-39
2022/01/24 05:55:51;;;;;;;;;;;22.50;55.20;;;;;;4994236;28;972;-39
2022/01/24 05:58:18;;;;;;;;;;;22.60;55.00;;;;;;4994228;28;948;-38
2022/01/24 06:00:44;;;;;;;;;;;22.50;55.20;;;;;;4993318;28;1028;-38
2022/01/24 06:03:11;;;;;;;;;;;22.50;55.30;;;;;;4994128;28;964;-38
2022/01/24 06:05:38;;;;;;;;;;;22.50;55.20;;;;;;4992548;28;991;-38
2022/01/24 06:08:06;;;;;;;;;;;22.50;55.20;;;;;;4994118;28;1906;-38
2022/01/24 06:10:36;;;;;;;;;;;22.50;55.40;;;;;;4993316;28;993;-39
2022/01/24 06:13:03;;;;;;;;;;;22.50;55.40;;;;;;4993040;28;932;-38
2022/01/24 06:15:29;;;;;;;;;;;22.40;55.60;;;;;;4991608;28;993;-39
2022/01/24 06:17:56;;;;;;;;;;;22.40;55.70;;;;;;4991613;28;1009;-38
2022/01/24 06:20:24;;;;;;;;;;;22.40;55.70;;;;;;4991236;28;993;-38
2022/01/24 06:22:51;;;;;;;;;;;22.30;55.70;;;;;;4991065;28;1018;-38
2022/01/24 06:25:22;;;;;;;;;;;22.30;55.80;;;;;;4990398;28;992;-38
2022/01/24 06:27:49;;;;;;;;;;;22.40;55.80;;;;;;4991052;28;1989;-38
2022/01/24 06:30:16;;;;;;;;;;;22.30;55.80;;;;;;4991893;28;980;-38
2022/01/24 06:32:43;;;;;;;;;;;22.30;55.70;;;;;;4992382;28;1019;-38
2022/01/24 06:35:11;;;;;;;;;;;22.40;55.80;;;;;;4994777;28;893;-37
2022/01/24 06:37:38;;;;;;;;;;;22.40;55.60;;;;;;4995614;28;933;-37
2022/01/24 06:40:06;;;;;;;;;;;22.40;55.50;;;;;;4996340;28;987;-37
2022/01/24 06:42:34;;;;;;;;;;;22.30;55.60;;;;;;4996123;28;1013;-37
2022/01/24 06:45:01;;;;;;;;;;;22.30;55.60;;;;;;4995293;28;1186;-38
2022/01/24 06:47:28;;;;;;;;;;;22.30;55.70;;;;;;4996162;28;1906;-38
2022/01/24 06:49:54;;;;;;;;;;;22.30;55.70;;;;;;4996892;28;1060;-38
2022/01/24 06:52:21;;;;;;;;;;;22.30;55.50;;;;;;4997453;28;1003;-37
2022/01/24 06:54:48;;;;;;;;;;;22.40;55.30;;;;;;4997273;28;952;-43
2022/01/24 06:57:15;;;;;;;;;;;22.40;55.40;;;;;;5008775;28;1652;-43
2022/01/24 06:59:44;;;;;;;;;;;22.40;55.60;;;;;;5017586;28;1111;-43
2022/01/24 07:02:12;;;;;;;;;;;22.50;55.40;;;;;;5016112;28;1001;-43
2022/01/24 07:04:39;;;;;;;;;;;22.50;55.20;;;;;;5015663;28;865;-43
2022/01/24 07:07:06;;;;;;;;;;;22.60;55.10;;;;;;5015044;28;1914;-39
2022/01/24 07:09:35;;;;;;;;;;;22.60;55.10;;;;;;5016337;28;937;-39
2022/01/24 07:12:04;;;;;;;;;;;22.60;55.60;;;;;;5017254;28;1031;-39
2022/01/24 07:14:31;;;;;;;;;;;22.60;55.50;;;;;;5016300;28;972;-39
2022/01/24 07:17:11;;;;;;;;;;;22.40;55.50;;;;;;5015439;28;964;-39
2022/01/24 07:19:37;;;;;;;;;;;22.50;55.50;;;;;;5016169;28;973;-39
2022/01/24 07:22:05;;;;;;;;;;;22.40;55.70;;;;;;5015155;28;999;-39
2022/01/24 07:24:33;;;;;;;;;;;22.40;55.90;;;;;;5013887;28;971;-39
2022/01/24 07:27:00;;;;;;;;;;;22.40;55.90;;;;;;5015448;28;1974;-38
2022/01/24 07:29:27;;;;;;;;;;;22.40;55.90;;;;;;5014580;28;1045;-38
2022/01/24 07:31:53;;;;;;;;;;;22.30;55.90;;;;;;5016351;28;971;-38
2022/01/24 07:34:21;;;;;;;;;;;22.40;55.90;;;;;;5015192;28;1000;-39
2022/01/24 07:36:48;;;;;;;;;;;22.30;55.90;;;;;;5015922;28;987;-39
2022/01/24 07:39:15;;;;;;;;;;;22.30;55.90;;;;;;5016129;28;976;-39
2022/01/24 07:41:45;;;;;;;;;;;22.30;55.80;;;;;;5015887;28;1012;-39
2022/01/24 07:44:12;;;;;;;;;;;22.30;55.90;;;;;;5015617;28;968;-39
2022/01/24 07:46:39;;;;;;;;;;;22.30;55.80;;;;;;5014924;28;1977;-39
2022/01/24 07:49:08;;;;;;;;;;;22.40;55.70;;;;;;5015005;28;931;-39
2022/01/24 07:51:36;;;;;;;;;;;22.30;55.80;;;;;;5015178;28;929;-39
2022/01/24 07:54:03;;;;;;;;;;;22.30;55.90;;;;;;5015322;28;992;-38
2022/01/24 07:56:30;;;;;;;;;;;22.30;55.70;;;;;;5015702;28;997;-39
2022/01/24 07:58:58;;;;;;;;;;;22.30;55.70;;;;;;5015403;28;1019;-39
2022/01/24 08:01:25;;;;;;;;;;;22.30;55.80;;;;;;5015280;28;976;-39
2022/01/24 08:03:52;;;;;;;;;;;22.30;55.60;;;;;;5014836;28;971;-39
2022/01/24 08:06:19;;;;;;;;;;;22.30;55.60;;;;;;5015511;28;956;-39
2022/01/24 08:08:47;;;;;;;;;;;22.30;55.50;;;;;;5014988;28;1903;-38
2022/01/24 08:11:15;;;;;;;;;;;22.30;55.50;;;;;;5014679;28;976;-39
2022/01/24 08:13:42;;;;;;;;;;;22.20;55.60;;;;;;5014947;28;956;-39
2022/01/24 08:16:09;;;;;;;;;;;22.20;55.60;;;;;;5014197;28;982;-39
2022/01/24 08:18:36;;;;;;;;;;;22.20;55.60;;;;;;5014129;28;1001;-40
2022/01/24 08:21:03;;;;;;;;;;;22.20;55.70;;;;;;5003020;28;1628;-39
2022/01/24 08:23:29;;;;;;;;;;;22.20;55.60;;;;;;4994809;28;1004;-39
2022/01/24 08:25:57;;;;;;;;;;;22.20;55.60;;;;;;4993775;28;992;-40
2022/01/24 08:28:24;;;;;;;;;;;22.20;55.60;;;;;;4994077;28;1976;-39
2022/01/24 08:30:52;;;;;;;;;;;22.20;55.70;;;;;;4994748;28;883;-38
2022/01/24 08:33:18;;;;;;;;;;;22.20;55.50;;;;;;4995056;28;1012;-39
2022/01/24 08:35:45;;;;;;;;;;;22.20;55.50;;;;;;4994148;28;1012;-39
2022/01/24 08:38:12;;;;;;;;;;;22.30;55.40;;;;;;4994806;28;983;-38
2022/01/24 08:40:40;;;;;;;;;;;22.20;55.50;;;;;;4993574;28;995;-38
2022/01/24 08:43:09;;;;;;;;;;;22.20;55.60;;;;;;4993548;28;1037;-39
2022/01/24 08:45:50;;;;;;;;;;;22.20;55.70;;;;;;4994350;28;1081;-37
2022/01/24 08:48:19;;;;;;;;;;;22.10;55.60;;;;;;4993381;28;1981;-38
2022/01/24 08:50:46;;;;;;;;;;;22.20;55.70;;;;;;4994740;28;991;-37
2022/01/24 08:53:13;;;;;;;;;;;22.20;55.60;;;;;;4993380;28;1032;-39
2022/01/24 08:55:40;;;;;;;;;;;22.10;55.50;;;;;;4994226;28;1869;-37
2022/01/24 08:58:13;;;;;;;;;;;22.10;55.70;;;;;;4993598;28;934;-39
2022/01/24 09:00:40;;;;;;;;;;;22.10;55.70;;;;;;4993717;28;920;-38
2022/01/24 09:03:07;;;;;;;;;;;22.00;55.70;;;;;;4993545;28;1039;-39
2022/01/24 09:05:35;;;;;;;;;;;22.00;55.80;;;;;;4994095;28;989;-38
2022/01/24 09:08:03;;;;;;;;;;;22.00;55.70;;;;;;4993385;28;1983;-38
2022/01/24 09:10:29;;;;;;;;;;;22.00;55.70;;;;;;4992792;28;969;-39
2022/01/24 09:12:56;;;;;;;;;;;22.00;55.70;;;;;;4994028;28;970;-39
2022/01/24 09:15:24;;;;;;;;;;;22.00;55.70;;;;;;4993957;28;1016;-39
2022/01/24 09:17:51;;;;;;;;;;;22.00;55.70;;;;;;4993808;28;978;-39
2022/01/24 09:20:18;;;;;;;;;;;22.00;55.70;;;;;;4991332;28;976;-39
2022/01/24 09:22:45;;;;;;;;;;;21.90;55.80;;;;;;4992454;28;1008;-39
2022/01/24 09:25:13;;;;;;;;;;;22.00;55.80;;;;;;4992366;28;1020;-39
2022/01/24 09:27:40;;;;;;;;;;;21.90;55.80;;;;;;4992690;28;1910;-39
2022/01/24 09:30:08;;;;;;;;;;;22.00;55.70;;;;;;4992462;28;1003;-39
2022/01/24 09:32:36;;;;;;;;;;;22.00;55.80;;;;;;4992761;28;1020;-38
2022/01/24 09:35:04;;;;;;;;;;;21.90;55.80;;;;;;4992261;28;974;-38
2022/01/24 09:37:31;;;;;;;;;;;21.90;55.70;;;;;;4992847;28;1018;-38
2022/01/24 09:39:58;;;;;;;;;;;21.90;55.70;;;;;;4992762;28;1037;-39
2022/01/24 09:42:24;;;;;;;;;;;21.90;55.70;;;;;;4992884;28;1000;-39
2022/01/24 09:44:51;;;;;;;;;;;21.90;55.70;;;;;;4993232;28;1132;-39
2022/01/24 09:47:18;;;;;;;;;;;21.90;55.90;;;;;;4991323;28;1967;-39
2022/01/24 09:49:48;;;;;;;;;;;21.90;55.90;;;;;;4992876;28;930;-39
2022/01/24 09:52:15;;;;;;;;;;;21.90;55.80;;;;;;4992750;28;1056;-39
2022/01/24 09:54:42;;;;;;;;;;;21.90;55.90;;;;;;4993050;28;992;-39
2022/01/24 09:57:09;;;;;;;;;;;21.90;55.90;;;;;;4993016;28;904;-37
2022/01/24 09:59:35;;;;;;;;;;;21.90;55.90;;;;;;4992407;28;1000;-38
2022/01/24 10:02:02;;;;;;;;;;;21.90;55.90;;;;;;4991997;28;980;-39
2022/01/24 10:04:30;;;;;;;;;;;21.90;56.00;;;;;;4990455;28;1046;-38
2022/01/24 10:06:59;;;;;;;;;;;21.90;55.90;;;;;;4991392;28;912;-38
2022/01/24 10:09:33;;;;;;;;;;;21.80;56.00;;;;;;4991300;28;1891;-38
2022/01/24 10:12:05;;;;;;;;;;;21.80;56.10;;;;;;4992961;28;996;-39
2022/01/24 10:17:21;;;;;;;;;;;21.80;56.00;;;;;;4995599;28;994;-38
2022/01/24 10:19:47;;;;;;;;;;;21.80;56.00;;;;;;4995220;28;1011;-39
2022/01/24 10:22:16;;;;;;;;;;;21.80;56.10;;;;;;4995108;28;1024;-39
2022/01/24 10:24:44;;;;;;;;;;;21.80;56.10;;;;;;4997086;28;1056;-39
2022/01/24 10:27:13;;;;;;;;;;;21.80;56.20;;;;;;4996538;28;921;-39
2022/01/24 10:29:48;;;;;;;;;;;21.80;56.20;;;;;;4996367;28;1914;-39
2022/01/24 10:32:30;;;;;;;;;;;21.80;56.20;;;;;;4996278;28;983;-38
2022/01/24 10:34:58;;;;;;;;;;;21.80;56.30;;;;;;4995590;28;1021;-39
2022/01/24 10:37:26;;;;;;;;;;;21.70;56.20;;;;;;4995313;28;929;-39
2022/01/24 10:40:04;;;;;;;;;;;21.80;56.10;;;;;;4994929;28;984;-39
2022/01/24 10:45:14;;;;;;;;;;;21.80;56.20;;;;;;5008269;28;1259;-39
2022/01/24 10:47:45;;;;;;;;;;;21.70;56.30;;;;;;4995009;28;1899;-39
2022/01/24 10:50:12;;;;;;;;;;;21.70;56.20;;;;;;4996208;28;949;-38
2022/01/24 10:52:40;;;;;;;;;;;21.70;56.30;;;;;;4996653;28;1826;-39
2022/01/24 10:55:13;;;;;;;;;;;21.70;56.20;;;;;;4995989;28;996;-39
2022/01/24 10:57:40;;;;;;;;;;;21.70;56.30;;;;;;4995992;28;997;-39
2022/01/24 11:00:09;;;;;;;;;;;21.70;56.20;;;;;;4996242;28;967;-39
2022/01/24 11:02:36;;;;;;;;;;;21.70;56.30;;;;;;4996257;28;1007;-39
2022/01/24 11:05:10;;;;;;;;;;;21.70;56.30;;;;;;4995817;28;1009;-39
2022/01/24 11:07:48;;;;;;;;;;;21.70;56.30;;;;;;4996671;28;1069;-39
2022/01/24 11:10:15;;;;;;;;;;;21.70;57.40;;;;;;4996066;28;988;-39
2022/01/24 11:12:42;;;;;;;;;;;21.70;56.20;;;;;;4996580;28;1041;-39
2022/01/24 11:15:10;;;;;;;;;;;21.70;56.20;;;;;;4996093;28;1055;-38
2022/01/24 11:17:37;;;;;;;;;;;21.70;57.30;;;;;;4996879;28;984;-38
2022/01/24 11:20:05;;;;;;;;;;;21.70;56.10;;;;;;4996259;28;972;-39
2022/01/24 11:22:35;;;;;;;;;;;21.70;56.20;;;;;;4996604;28;1187;-39
2022/01/24 11:25:06;;;;;;;;;;;21.70;56.30;;;;;;4995874;28;945;-39
2022/01/24 11:27:33;;;;;;;;;;;21.70;56.30;;;;;;4996149;28;989;-39
2022/01/24 11:30:02;;;;;;;;;;;21.70;56.40;;;;;;4996814;28;1976;-39
2022/01/24 11:32:31;;;;;;;;;;;21.70;56.30;;;;;;4996340;28;952;-38
2022/01/24 11:34:58;;;;;;;;;;;21.70;56.30;;;;;;4996070;28;1004;-39
2022/01/24 11:37:32;;;;;;;;;;;21.60;56.40;;;;;;4996326;28;992;-39
2022/01/24 11:39:59;;;;;;;;;;;21.60;56.30;;;;;;4995419;28;980;-39
2022/01/24 11:42:30;;;;;;;;;;;21.60;56.40;;;;;;4995903;28;1007;-39
2022/01/24 11:45:02;;;;;;;;;;;21.70;56.30;;;;;;4995026;28;1096;-38
2022/01/24 11:47:31;;;;;;;;;;;21.70;56.10;;;;;;4993571;28;1019;-39
2022/01/24 11:49:58;;;;;;;;;;;21.70;56.10;;;;;;4995381;28;1903;-39
2022/01/24 11:52:32;;;;;;;;;;;21.70;56.10;;;;;;4993044;28;1255;-40
2022/01/24 11:55:13;;;;;;;;;;;21.70;56.10;;;;;;4993156;28;1004;-40
2022/01/24 11:57:44;;;;;;;;;;;21.70;56.20;;;;;;4992780;28;1253;-40
2022/01/24 12:00:16;;;;;;;;;;;21.70;56.10;;;;;;4991897;28;969;-40
2022/01/24 12:02:43;;;;;;;;;;;21.70;56.20;;;;;;4994093;28;1005;-40
2022/01/24 12:05:11;;;;;;;;;;;21.70;56.10;;;;;;4992420;28;940;-40
2022/01/24 12:07:41;;;;;;;;;;;21.70;56.10;;;;;;4992521;28;982;-40
2022/01/24 12:10:33;;;;;;;;;;;21.60;56.10;;;;;;4993140;28;1979;-39
2022/01/24 12:13:03;;;;;;;;;;;21.60;56.20;;;;;;4992256;28;1138;-40
2022/01/24 12:15:48;;;;;;;;;;;21.70;56.10;;;;;;4993652;28;868;-40
2022/01/24 12:18:19;;;;;;;;;;;21.70;56.20;;;;;;4994069;28;1019;-39
2022/01/24 12:20:47;;;;;;;;;;;21.60;56.10;;;;;;4993484;28;945;-40
2022/01/24 12:23:32;;;;;;;;;;;21.70;56.10;;;;;;4992691;28;1127;-40
2022/01/24 12:26:02;;;;;;;;;;;21.60;56.10;;;;;;4994232;28;1020;-40
2022/01/24 12:28:31;;;;;;;;;;;21.60;56.10;;;;;;4995769;28;1980;-40
2022/01/24 12:30:58;;;;;;;;;;;21.70;56.00;;;;;;4994896;28;1877;-40
2022/01/24 12:33:29;;;;;;;;;;;21.70;56.10;;;;;;4993467;28;959;-40
2022/01/24 12:35:56;;;;;;;;;;;21.70;56.10;;;;;;4993330;28;977;-40
2022/01/24 12:38:23;;;;;;;;;;;21.70;56.00;;;;;;4994884;28;993;-40
2022/01/24 12:40:50;;;;;;;;;;;21.70;56.00;;;;;;4992630;28;1032;-40
2022/01/24 12:43:30;;;;;;;;;;;21.70;56.00;;;;;;4993448;28;1008;-38
2022/01/24 12:46:19;;;;;;;;;;;21.60;56.10;;;;;;4991984;28;1032;-40
2022/01/24 12:48:47;;;;;;;;;;;21.60;56.30;;;;;;4992483;28;1973;-40
2022/01/24 12:51:15;;;;;;;;;;;21.60;56.20;;;;;;4993925;28;988;-39
2022/01/24 12:53:42;;;;;;;;;;;21.70;56.20;;;;;;4995220;28;940;-39
2022/01/24 12:56:08;;;;;;;;;;;21.70;56.00;;;;;;4994153;28;972;-40
2022/01/24 12:58:36;;;;;;;;;;;21.70;55.90;;;;;;4992788;28;945;-40
2022/01/24 13:01:16;;;;;;;;;;;21.70;55.90;;;;;;4992585;28;953;-39
2022/01/24 13:03:49;;;;;;;;;;;21.70;55.90;;;;;;4993796;28;940;-39
2022/01/24 13:06:16;;;;;;;;;;;21.70;55.90;;;;;;4994105;28;1012;-40
2022/01/24 13:08:52;;;;;;;;;;;21.70;55.80;;;;;;4994602;28;1902;-40
2022/01/24 13:11:18;;;;;;;;;;;21.80;55.70;;;;;;4994913;28;916;-39
2022/01/24 13:13:57;;;;;;;;;;;21.70;55.60;;;;;;4993416;28;1033;-40
2022/01/24 13:22:09;;;;;;;;;;;21.70;55.80;;;;;;4994484;28;846;-40
2022/01/24 13:24:37;;;;;;;;;;;21.60;55.80;;;;;;4994496;28;985;-40
2022/01/24 13:27:04;;;;;;;;;;;21.60;55.90;;;;;;4994839;28;1031;-40
2022/01/24 13:29:37;;;;;;;;;;;21.70;55.80;;;;;;4994889;28;1898;-39
2022/01/24 13:32:04;;;;;;;;;;;21.80;55.50;;;;;;4994098;28;1008;-40
2022/01/24 13:34:32;;;;;;;;;;;21.70;55.60;;;;;;4994280;28;942;-39
2022/01/24 13:37:06;;;;;;;;;;;21.70;55.60;;;;;;4994618;28;1041;-39
2022/01/24 13:39:33;;;;;;;;;;;21.70;55.60;;;;;;4994604;28;1507;-40
2022/01/24 13:41:59;;;;;;;;;;;21.60;55.60;;;;;;4994180;28;1005;-40
2022/01/24 13:44:26;;;;;;;;;;;21.60;55.60;;;;;;4993213;28;877;-39
2022/01/24 13:46:53;;;;;;;;;;;21.70;55.60;;;;;;4991679;28;1261;-40
2022/01/24 13:49:21;;;;;;;;;;;21.70;55.60;;;;;;4993699;28;1910;-40
2022/01/24 13:51:51;;;;;;;;;;;21.70;55.60;;;;;;4993543;28;1001;-40
2022/01/24 13:54:19;;;;;;;;;;;21.70;55.60;;;;;;4993155;28;977;-40
2022/01/24 13:56:46;;;;;;;;;;;21.70;55.60;;;;;;4992535;28;979;-40
2022/01/24 13:59:15;;;;;;;;;;;21.70;55.60;;;;;;4993669;28;953;-40
2022/01/24 14:01:56;;;;;;;;;;;21.70;55.60;;;;;;4993887;28;1031;-40
2022/01/24 14:04:28;;;;;;;;;;;21.70;55.60;;;;;;4993139;28;953;-39
2022/01/24 14:06:57;;;;;;;;;;;21.70;55.60;;;;;;4993084;28;988;-38
2022/01/24 14:09:31;;;;;;;;;;;21.60;55.50;;;;;;4991813;28;1907;-40
2022/01/24 14:11:58;;;;;;;;;;;21.70;55.60;;;;;;4993321;28;1021;-40
2022/01/24 14:14:37;;;;;;;;;;;21.60;55.50;;;;;;4993313;28;976;-38
2022/01/24 14:17:17;;;;;;;;;;;21.70;55.50;;;;;;4992690;28;1032;-40
2022/01/24 14:19:44;;;;;;;;;;;21.70;55.60;;;;;;4990947;28;941;-40
2022/01/24 14:22:13;;;;;;;;;;;21.70;55.50;;;;;;4991423;28;1028;-40
2022/01/24 14:24:47;;;;;;;;;;;21.70;55.40;;;;;;4991863;28;1003;-40
2022/01/24 14:27:14;;;;;;;;;;;21.70;55.30;;;;;;4992437;28;949;-39
2022/01/24 14:29:41;;;;;;;;;;;21.70;55.40;;;;;;4991578;28;1982;-40
2022/01/24 14:32:12;;;;;;;;;;;21.60;55.40;;;;;;4992593;28;987;-40
2022/01/24 14:34:39;;;;;;;;;;;21.70;55.40;;;;;;4993544;28;1020;-40
2022/01/24 14:37:06;;;;;;;;;;;21.70;55.30;;;;;;4993367;28;996;-40
2022/01/24 14:39:44;;;;;;;;;;;21.70;55.20;;;;;;4992832;28;959;-39
2022/01/24 14:42:13;;;;;;;;;;;21.70;55.40;;;;;;4993961;28;1019;-39
2022/01/24 14:44:54;;;;;;;;;;;21.60;55.50;;;;;;4993493;28;1024;-40
2022/01/24 14:47:21;;;;;;;;;;;21.60;55.50;;;;;;4992594;28;1000;-40
2022/01/24 14:49:48;;;;;;;;;;;21.60;55.40;;;;;;4993073;28;1898;-40
2022/01/24 14:52:19;;;;;;;;;;;21.60;55.20;;;;;;4992871;28;1008;-40
2022/01/24 14:54:47;;;;;;;;;;;21.60;55.30;;;;;;4993408;28;1023;-40
2022/01/24 14:57:15;;;;;;;;;;;21.70;55.20;;;;;;4995469;28;992;-40
2022/01/24 14:59:44;;;;;;;;;;;21.60;55.40;;;;;;4995402;28;1004;-41
2022/01/24 15:02:11;;;;;;;;;;;21.60;55.50;;;;;;4995029;28;1009;-41
2022/01/24 15:04:38;;;;;;;;;;;21.60;55.40;;;;;;4995735;28;920;-40
2022/01/24 15:07:05;;;;;;;;;;;21.60;55.40;;;;;;4995717;28;979;-40
2022/01/24 15:09:33;;;;;;;;;;;21.60;55.30;;;;;;4995388;28;1973;-40
2022/01/24 15:12:04;;;;;;;;;;;21.60;55.40;;;;;;4996224;28;1024;-40
2022/01/24 15:14:34;;;;;;;;;;;21.60;55.50;;;;;;4995489;28;949;-41
2022/01/24 15:17:11;;;;;;;;;;;21.50;55.50;;;;;;4996752;28;933;-41
2022/01/24 15:25:22;;;;;;;;;;;21.50;55.30;;;;;;4996432;28;628;-40
2022/01/24 15:27:52;;;;;;;;;;;21.60;55.30;;;;;;4997221;28;1016;-40
2022/01/24 15:30:20;;;;;;;;;;;21.60;55.30;;;;;;4996060;28;1903;-40
2022/01/24 15:32:47;;;;;;;;;;;21.60;55.20;;;;;;4996126;28;1031;-40
2022/01/24 15:35:16;;;;;;;;;;;21.60;55.30;;;;;;4996407;28;996;-38
2022/01/24 15:37:43;;;;;;;;;;;21.60;55.40;;;;;;4996113;28;936;-40
2022/01/24 15:40:11;;;;;;;;;;;21.60;55.40;;;;;;4995692;28;933;-40
2022/01/24 15:42:44;;;;;;;;;;;21.50;55.30;;;;;;4995854;28;977;-40
2022/01/24 15:45:30;;;;;;;;;;;21.50;55.40;;;;;;4996586;28;1103;-40
2022/01/24 15:47:58;;;;;;;;;;;21.50;55.50;;;;;;4996561;28;1135;-40
2022/01/24 15:50:26;;;;;;;;;;;21.50;55.40;;;;;;4995856;28;1899;-41
2022/01/24 15:52:53;;;;;;;;;;;21.50;55.50;;;;;;4996074;28;1005;-40
2022/01/24 15:55:24;;;;;;;;;;;21.50;55.50;;;;;;4995418;28;1008;-40
2022/01/24 15:57:51;;;;;;;;;;;21.40;55.40;;;;;;4995889;28;933;-40
2022/01/24 16:00:20;;;;;;;;;;;21.40;55.40;;;;;;4995526;28;1009;-40
2022/01/24 16:02:48;;;;;;;;;;;21.50;56.50;;;;;;4994997;28;1008;-40